Time;durP1;ratioP1;P1;durP2;ratioP2;P2;SDS_P1;SDS_P2;PMS_P1;PMS_P2;Temp;Humidity;BMP_temperature;BMP_pressure;BME280_temperature;BME280_humidity;BME280_pressure;Samples;Min_cycle;Max_cycle;Signal;HPM_P1;HPM_P2
2022/07/01 00:00:28;;;;;;;10.50;7.78;;;;;;;21.46;63.14;99284.34;4993670;28;20542;-78
2022/07/01 00:02:53;;;;;;;11.85;8.27;;;;;;;21.68;62.57;99267.19;5011967;28;20477;-78
2022/07/01 00:05:19;;;;;;;13.70;7.45;;;;;;;21.63;62.58;99272.47;4994437;28;20029;-78
2022/07/01 00:07:46;;;;;;;14.05;7.85;;;;;;;21.73;62.59;99271.63;5012335;28;20428;-78
2022/07/01 00:10:12;;;;;;;12.63;8.07;;;;;;;21.68;62.62;99272.09;4994386;28;20029;-78
2022/07/01 00:12:37;;;;;;;19.65;7.78;;;;;;;21.22;63.88;99271.06;5011846;28;20033;-78
2022/07/01 00:15:03;;;;;;;18.67;8.13;;;;;;;20.96;64.95;99274.03;5011796;28;20412;-78
2022/07/01 00:17:29;;;;;;;8.98;7.57;;;;;;;20.92;64.99;99275.25;4994141;28;20074;-77
2022/07/01 00:19:55;;;;;;;11.77;8.23;;;;;;;21.42;63.50;99283.56;5011799;28;20047;-78
2022/07/01 00:22:20;;;;;;;9.30;7.25;;;;;;;21.76;62.32;99270.78;4993995;28;20026;-78
2022/07/01 00:24:48;;;;;;;12.40;7.88;;;;;;;21.99;61.42;99281.63;4993972;28;20029;-78
2022/07/01 00:27:14;;;;;;;12.20;8.05;;;;;;;21.78;61.71;99276.09;5011608;28;20500;-78
2022/07/01 00:29:40;;;;;;;15.50;8.55;;;;;;;21.90;61.71;99278.44;5011531;28;20026;-78
2022/07/01 00:32:06;;;;;;;10.90;7.13;;;;;;;22.28;60.57;99283.44;4993969;28;20564;-78
2022/07/01 00:34:32;;;;;;;16.25;7.03;;;;;;;22.40;59.64;99263.00;5011488;28;20045;-78
2022/07/01 00:36:57;;;;;;;17.15;7.90;;;;;;;22.58;59.03;99281.97;4993848;28;20092;-78
2022/07/01 00:39:23;;;;;;;11.10;6.65;;;;;;;22.68;59.17;99274.53;5011218;28;20045;-78
2022/07/01 00:41:48;;;;;;;10.13;6.90;;;;;;;22.85;58.46;99284.13;5011560;28;20033;-78
2022/07/01 00:44:20;;;;;;;21.60;8.35;;;;;;;22.89;58.48;99278.41;5011303;28;20507;-78
2022/07/01 00:46:49;;;;;;;17.10;6.72;;;;;;;23.08;57.66;99268.41;4993679;28;20502;-78
2022/07/01 00:49:15;;;;;;;11.98;8.27;;;;;;;23.19;57.56;99280.47;5011391;28;20025;-78
2022/07/01 00:51:41;;;;;;;8.52;6.57;;;;;;;23.10;57.51;99274.47;5011331;28;20029;-78
2022/07/01 00:54:07;;;;;;;13.52;7.07;;;;;;;23.03;57.33;99263.16;4993671;28;20026;-78
2022/07/01 00:56:32;;;;;;;11.45;7.40;;;;;;;22.50;59.15;99258.44;4993657;28;20041;-78
2022/07/01 00:58:58;;;;;;;20.25;8.55;;;;;;;22.23;60.07;99255.41;5011116;28;20026;-78
2022/07/01 01:01:24;;;;;;;17.85;8.32;;;;;;;22.16;60.37;99271.34;5009628;28;20030;-78
2022/07/01 01:03:49;;;;;;;13.77;7.60;;;;;;;22.23;60.00;99264.75;4993460;28;20038;-78
2022/07/01 01:06:15;;;;;;;21.63;7.63;;;;;;;21.74;61.04;99259.84;5011240;28;20060;-78
2022/07/01 01:08:42;;;;;;;14.48;8.05;;;;;;;21.35;62.46;99260.84;5011169;28;20026;-78
2022/07/01 01:11:08;;;;;;;16.13;6.90;;;;;;;21.72;61.52;99265.16;4994217;28;20030;-78
2022/07/01 01:13:33;;;;;;;15.23;7.30;;;;;;;21.67;61.52;99257.03;4997516;28;20125;-78
2022/07/01 01:15:59;;;;;;;11.10;7.20;;;;;;;21.20;62.64;99254.44;4997510;28;20041;-78
2022/07/01 01:18:24;;;;;;;16.10;7.32;;;;;;;20.60;64.37;99254.19;5015219;28;20095;-78
2022/07/01 01:20:52;;;;;;;14.75;7.35;;;;;;;20.46;65.05;99260.69;4997404;28;20117;-77
2022/07/01 01:23:18;;;;;;;10.07;7.50;;;;;;;20.75;64.10;99261.44;5015080;28;20084;-78
2022/07/01 01:25:43;;;;;;;10.65;7.18;;;;;;;20.68;64.21;99278.50;4997246;28;20026;-78
2022/07/01 01:28:10;;;;;;;10.70;7.82;;;;;;;20.67;64.29;99271.22;5014886;28;20029;-78
2022/07/01 01:30:35;;;;;;;13.43;8.07;;;;;;;20.65;64.46;99272.84;5014832;28;20037;-78
2022/07/01 01:33:01;;;;;;;17.23;7.72;;;;;;;20.65;64.47;99270.81;4997305;28;20034;-78
2022/07/01 01:35:27;;;;;;;16.40;8.35;;;;;;;20.92;64.03;99276.03;4997169;28;20026;-78
2022/07/01 01:37:52;;;;;;;9.63;7.05;;;;;;;21.11;63.10;99274.75;5014768;28;20460;-78
2022/07/01 01:40:18;;;;;;;19.33;8.20;;;;;;;21.04;63.34;99274.81;5014491;28;20048;-77
2022/07/01 01:42:44;;;;;;;13.95;7.45;;;;;;;21.29;62.39;99266.16;5014648;28;20087;-78
2022/07/01 01:45:10;;;;;;;10.73;7.35;;;;;;;21.47;61.84;99270.94;5014561;28;20033;-77
2022/07/01 01:47:36;;;;;;;16.25;7.32;;;;;;;21.59;61.51;99281.03;5014374;28;20054;-77
2022/07/01 01:50:03;;;;;;;15.90;6.50;;;;;;;21.73;61.11;99278.16;5014470;28;20029;-77
2022/07/01 01:52:29;;;;;;;10.65;6.72;;;;;;;21.77;60.18;99272.41;4996908;28;20041;-78
2022/07/01 01:54:54;;;;;;;12.07;7.35;;;;;;;21.81;60.03;99281.75;5014369;28;20022;-78
2022/07/01 01:57:20;;;;;;;10.90;7.03;;;;;;;21.85;60.07;99281.75;4996758;28;20065;-78
2022/07/01 01:59:45;;;;;;;11.05;6.82;;;;;;;21.90;60.05;99286.97;5014199;28;20484;-77
2022/07/01 02:02:11;;;;;;;12.60;7.45;;;;;;;21.61;60.71;99284.28;4996597;28;20026;-78
2022/07/01 02:04:36;;;;;;;8.70;6.57;;;;;;;21.04;62.92;99286.19;5014224;28;20030;-78
2022/07/01 02:07:02;;;;;;;17.40;7.50;;;;;;;21.07;62.93;99282.50;5014249;28;20026;-78
2022/07/01 02:09:29;;;;;;;10.73;7.40;;;;;;;20.61;64.16;99281.38;5014083;28;20022;-78
2022/07/01 02:11:54;;;;;;;14.43;7.95;;;;;;;20.77;64.13;99284.59;5014079;28;20029;-78
2022/07/01 02:14:20;;;;;;;12.48;7.40;;;;;;;20.69;64.02;99282.19;5013986;28;20540;-78
2022/07/01 02:16:45;;;;;;;10.40;7.20;;;;;;;20.80;63.68;99284.97;5013949;28;20477;-78
2022/07/01 02:19:11;;;;;;;11.73;6.90;;;;;;;20.74;64.09;99291.09;4996279;28;20036;-78
2022/07/01 02:21:36;;;;;;;12.38;7.55;;;;;;;20.38;64.57;99290.31;4996289;28;20033;-77
2022/07/01 02:24:02;;;;;;;9.98;7.82;;;;;;;20.22;65.78;99302.91;4995460;28;20033;-77
2022/07/01 02:26:27;;;;;;;11.57;7.50;;;;;;;20.02;66.34;99291.13;5013732;28;20091;-77
2022/07/01 02:28:53;;;;;;;12.38;7.55;;;;;;;19.85;67.13;99287.84;4996279;28;20098;-77
2022/07/01 02:31:18;;;;;;;17.02;7.00;;;;;;;19.89;67.16;99287.84;4996103;28;20507;-77
2022/07/01 02:33:44;;;;;;;12.18;7.70;;;;;;;19.61;68.00;99298.75;5013659;28;20068;-77
2022/07/01 02:36:09;;;;;;;12.57;7.32;;;;;;;19.38;68.56;99301.91;4995958;28;20578;-77
2022/07/01 02:38:35;;;;;;;25.60;8.30;;;;;;;19.03;69.78;99314.69;5013479;28;20057;-77
2022/07/01 02:41:00;;;;;;;15.23;7.95;;;;;;;18.98;69.98;99309.38;5013392;28;20025;-77
2022/07/01 02:43:26;;;;;;;9.43;7.20;;;;;;;19.04;69.49;99313.50;4996021;28;20088;-77
2022/07/01 02:45:51;;;;;;;10.20;7.05;;;;;;;19.35;68.30;99322.56;4995621;28;20531;-77
2022/07/01 02:48:17;;;;;;;12.68;7.30;;;;;;;19.55;67.66;99330.72;4995954;28;20033;-77
2022/07/01 02:50:42;;;;;;;9.95;7.22;;;;;;;19.53;67.93;99325.47;4995670;28;20103;-77
2022/07/01 02:53:08;;;;;;;15.90;8.55;;;;;;;19.71;67.53;99317.00;4995752;28;20579;-77
2022/07/01 02:55:33;;;;;;;18.77;8.68;;;;;;;19.70;68.01;99323.88;4995702;28;20021;-77
2022/07/01 02:57:59;;;;;;;23.27;8.85;;;;;;;19.57;68.85;99316.97;4995608;28;20026;-77
2022/07/01 03:00:25;;;;;;;11.80;7.72;;;;;;;19.54;69.34;99324.25;5013097;28;20099;-77
2022/07/01 03:02:50;;;;;;;12.50;8.20;;;;;;;19.45;69.76;99313.28;4995449;28;20476;-77
2022/07/01 03:05:16;;;;;;;13.43;8.18;;;;;;;19.53;69.39;99324.63;4995485;28;20041;-77
2022/07/01 03:07:42;;;;;;;15.23;8.02;;;;;;;19.39;69.81;99326.19;5013009;28;20064;-77
2022/07/01 03:10:09;;;;;;;9.35;8.45;;;;;;;19.21;70.24;99332.63;5012979;28;20549;-77
2022/07/01 03:12:35;;;;;;;10.95;8.27;;;;;;;19.16;70.52;99335.81;5012855;28;20053;-77
2022/07/01 03:15:06;;;;;;;15.93;7.70;;;;;;;19.31;69.85;99336.72;4995409;28;20570;-77
2022/07/01 03:17:33;;;;;;;17.50;8.43;;;;;;;19.40;69.54;99339.16;5011275;28;20034;-77
2022/07/01 03:20:00;;;;;;;15.05;8.73;;;;;;;19.27;69.93;99337.91;5012748;28;20429;-77
2022/07/01 03:22:27;;;;;;;12.23;8.48;;;;;;;19.21;70.20;99345.97;5013151;28;20481;-77
2022/07/01 03:24:54;;;;;;;8.88;7.97;;;;;;;19.24;69.69;99333.03;4995572;28;20048;-77
2022/07/01 03:27:20;;;;;;;14.55;7.90;;;;;;;19.51;69.28;99336.41;4995796;28;20088;-77
2022/07/01 03:29:46;;;;;;;14.35;8.10;;;;;;;19.70;68.06;99346.59;5013197;28;20412;-77
2022/07/01 03:32:12;;;;;;;19.35;8.40;;;;;;;19.80;67.80;99341.34;4995149;28;20034;-77
2022/07/01 03:34:49;;;;;;;13.10;8.52;;;;;;;19.90;67.22;99346.22;4995745;28;20036;-77
2022/07/01 03:37:16;;;;;;;16.02;6.97;;;;;;;19.98;67.06;99347.91;4995002;28;20564;-79
2022/07/01 03:39:41;;;;;;;16.52;7.95;;;;;;;20.10;66.56;99345.88;5012184;28;20036;-78
2022/07/01 03:42:08;;;;;;;18.70;8.20;;;;;;;20.02;66.98;99357.22;5012227;28;20101;-77
2022/07/01 03:44:34;;;;;;;21.30;13.82;;;;;;;19.93;67.25;99345.47;5012985;28;20037;-78
2022/07/01 03:47:02;;;;;;;51.83;28.85;;;;;;;19.72;67.70;99357.50;4994410;28;20050;-78
2022/07/01 03:49:28;;;;;;;33.67;15.48;;;;;;;19.75;67.58;99363.22;4995435;28;20018;-78
2022/07/01 03:51:53;;;;;;;31.83;15.23;;;;;;;19.72;68.34;99358.34;5012861;28;20030;-78
2022/07/01 03:54:32;;;;;;;38.42;24.73;;;;;;;19.86;67.88;99345.41;4994758;28;20085;-78
2022/07/01 03:57:01;;;;;;;43.25;27.73;;;;;;;20.09;66.72;99341.44;5012135;28;20036;-78
2022/07/01 03:59:28;;;;;;;24.52;15.73;;;;;;;20.13;65.90;99347.91;5012203;28;20057;-78
2022/07/01 04:01:55;;;;;;;13.85;9.60;;;;;;;19.97;66.12;99345.44;5012030;28;20088;-78
2022/07/01 04:04:21;;;;;;;11.05;7.85;;;;;;;19.81;66.62;99338.09;5012144;28;20029;-79
2022/07/01 04:06:47;;;;;;;10.35;6.90;;;;;;;19.89;66.32;99338.91;5012041;28;20037;-79
2022/07/01 04:09:14;;;;;;;27.08;8.70;;;;;;;20.08;66.49;99356.84;5012003;28;20030;-78
2022/07/01 04:11:42;;;;;;;10.27;6.88;;;;;;;20.01;67.24;99357.63;5011890;28;20109;-78
2022/07/01 04:14:09;;;;;;;14.18;7.75;;;;;;;20.02;67.92;99359.25;5011899;28;20087;-78
2022/07/01 04:16:34;;;;;;;15.20;6.88;;;;;;;20.03;68.49;99347.50;5011864;28;20026;-78
2022/07/01 04:19:00;;;;;;;20.65;6.95;;;;;;;20.07;67.61;99341.81;4994184;28;20030;-78
2022/07/01 04:24:09;;;;;;;15.18;7.75;;;;;;;20.16;67.65;99347.13;5011793;28;20507;-78
2022/07/01 04:26:35;;;;;;;18.15;9.38;;;;;;;20.28;67.16;99346.72;5011725;28;20022;-78
2022/07/01 04:29:00;;;;;;;29.35;8.80;;;;;;;20.39;67.59;99354.41;5011673;28;20026;-78
2022/07/01 04:31:26;;;;;;;17.08;7.45;;;;;;;20.25;67.49;99339.00;5011738;28;20080;-78
2022/07/01 04:33:51;;;;;;;13.98;6.97;;;;;;;20.47;66.30;99356.88;4993987;28;20484;-78
2022/07/01 04:36:17;;;;;;;15.30;6.32;;;;;;;20.51;66.27;99356.84;4994123;28;20116;-78
2022/07/01 04:38:43;;;;;;;14.27;7.95;;;;;;;20.65;65.49;99361.72;4993792;28;20466;-78
2022/07/01 04:43:53;;;;;;;13.95;6.85;;;;;;;20.76;65.60;99353.22;5011532;28;20416;-78
2022/07/01 04:46:18;;;;;;;15.85;7.13;;;;;;;20.94;65.51;99353.22;4993310;28;20038;-78
2022/07/01 04:48:43;;;;;;;8.55;6.10;;;;;;;20.99;65.41;99357.66;4993748;28;20022;-78
2022/07/01 04:51:09;;;;;;;14.43;6.13;;;;;;;21.10;64.02;99366.97;5011536;28;20451;-78
2022/07/01 04:53:35;;;;;;;10.95;7.13;;;;;;;21.36;63.63;99362.03;4993726;28;20032;-78
2022/07/01 04:56:00;;;;;;;19.92;7.18;;;;;;;21.40;63.40;99353.47;4993725;28;20033;-78
2022/07/01 04:58:26;;;;;;;7.55;6.80;;;;;;;21.44;62.55;99355.09;5011287;28;20391;-78
2022/07/01 05:00:52;;;;;;;17.83;6.90;;;;;;;21.41;61.26;99350.22;5011410;28;20033;-78
2022/07/01 05:03:17;;;;;;;12.60;6.35;;;;;;;21.65;60.85;99352.56;5011328;28;20485;-78
2022/07/01 05:05:44;;;;;;;11.20;6.72;;;;;;;21.87;59.84;99356.16;5011338;28;20022;-78
2022/07/01 05:08:09;;;;;;;10.63;6.72;;;;;;;22.00;59.29;99365.81;5011227;28;20037;-78
2022/07/01 05:10:35;;;;;;;9.90;6.38;;;;;;;22.37;59.53;99357.03;4993845;28;20025;-78
2022/07/01 05:13:00;;;;;;;11.02;6.75;;;;;;;22.72;56.67;99367.34;5011223;28;20053;-78
2022/07/01 05:15:26;;;;;;;15.60;7.35;;;;;;;22.83;55.94;99358.69;5011146;28;20029;-78
2022/07/01 05:23:19;;;;;;;8.23;5.97;;;;;;;23.28;53.28;99374.13;5011414;28;20084;-78
2022/07/01 05:25:45;;;;;;;11.10;6.65;;;;;;;23.18;54.44;99364.44;4993574;28;20045;-78
2022/07/01 05:28:10;;;;;;;10.15;7.13;;;;;;;23.44;53.35;99367.03;5011006;28;20026;-78
2022/07/01 05:30:39;;;;;;;11.80;6.57;;;;;;;23.70;53.84;99360.59;5011099;28;20076;-78
2022/07/01 05:33:04;;;;;;;6.88;6.18;;;;;;;23.84;52.70;99370.19;4993683;28;20113;-78
2022/07/01 05:35:30;;;;;;;6.53;5.72;;;;;;;23.95;51.68;99368.00;4993456;28;20033;-78
2022/07/01 05:37:56;;;;;;;9.82;6.25;;;;;;;24.17;51.99;99364.88;4993255;28;20116;-78
2022/07/01 05:40:22;;;;;;;8.60;6.10;;;;;;;24.42;51.27;99352.22;5010809;28;20101;-78
2022/07/01 05:42:48;;;;;;;11.00;6.18;;;;;;;24.43;50.94;99359.56;5011021;28;20025;-78
2022/07/01 05:45:13;;;;;;;12.27;5.97;;;;;;;24.53;51.04;99363.47;5010776;28;20463;-78
2022/07/01 05:47:39;;;;;;;9.15;5.22;;;;;;;24.58;49.24;99357.28;5010792;28;20046;-78
2022/07/01 05:50:05;;;;;;;11.75;5.65;;;;;;;24.78;49.98;99348.78;4993352;28;20077;-78
2022/07/01 05:52:30;;;;;;;7.72;5.13;;;;;;;25.12;48.49;99352.66;5010859;28;20034;-78
2022/07/01 05:54:56;;;;;;;9.93;6.53;;;;;;;25.35;48.90;99363.25;5010818;28;20017;-78
2022/07/01 05:57:21;;;;;;;12.27;5.32;;;;;;;25.49;47.63;99349.94;5010954;28;20025;-79
2022/07/01 05:59:47;;;;;;;45.35;8.68;;;;;;;25.58;47.14;99353.00;5014387;28;20056;-78
2022/07/01 06:02:13;;;;;;;8.75;5.45;;;;;;;25.69;47.13;99355.63;5014547;28;20459;-78
2022/07/01 06:04:38;;;;;;;15.98;5.55;;;;;;;25.48;46.30;99354.00;5014150;28;20026;-78
2022/07/01 06:07:04;;;;;;;9.88;5.07;;;;;;;25.61;45.49;99354.97;5014914;28;20022;-79
2022/07/01 06:09:29;;;;;;;10.48;5.75;;;;;;;25.56;46.93;99349.75;5014197;28;20018;-78
2022/07/01 06:11:55;;;;;;;11.00;6.10;;;;;;;25.61;47.09;99349.25;5014141;28;20103;-78
2022/07/01 06:14:20;;;;;;;7.80;4.55;;;;;;;25.28;45.95;99356.84;4996493;28;20516;-78
2022/07/01 06:16:46;;;;;;;16.30;6.53;;;;;;;25.42;45.97;99352.91;4996479;28;20076;-78
2022/07/01 06:19:11;;;;;;;8.23;4.63;;;;;;;25.61;45.36;99343.53;4996338;28;20595;-78
2022/07/01 06:21:37;;;;;;;11.30;6.20;;;;;;;25.83;44.98;99343.06;5014075;28;20104;-78
2022/07/01 06:24:02;;;;;;;10.52;5.50;;;;;;;25.69;45.35;99349.91;4996292;28;20105;-78
2022/07/01 06:26:28;;;;;;;7.47;4.88;;;;;;;26.01;44.76;99341.84;5014038;28;20503;-78
2022/07/01 06:28:53;;;;;;;4.88;4.40;;;;;;;26.31;44.46;99345.69;4996155;28;20488;-78
2022/07/01 06:31:19;;;;;;;7.25;4.70;;;;;;;26.06;43.57;99352.75;5013986;28;20033;-78
2022/07/01 06:33:44;;;;;;;6.97;4.93;;;;;;;26.23;43.93;99358.56;4995944;28;20449;-78
2022/07/01 06:36:10;;;;;;;11.77;6.13;;;;;;;26.24;43.31;99348.69;5013806;28;20038;-81
2022/07/01 06:38:35;;;;;;;5.72;5.10;;;;;;;26.19;43.13;99345.13;4996017;28;20068;-79
2022/07/01 06:43:44;;;;;;;10.13;5.28;;;;;;;26.70;43.43;99346.75;5013817;28;20040;-78
2022/07/01 06:46:10;;;;;;;9.48;4.80;;;;;;;27.07;42.43;99340.06;5013413;28;20432;-78
2022/07/01 06:48:36;;;;;;;9.73;4.63;;;;;;;27.25;42.30;99346.09;5013449;28;20070;-78
2022/07/01 06:51:03;;;;;;;13.60;5.13;;;;;;;27.22;42.72;99338.41;4995793;28;20034;-78
2022/07/01 06:53:28;;;;;;;12.35;5.07;;;;;;;27.31;41.79;99332.00;5013504;28;20030;-78
2022/07/01 06:55:54;;;;;;;5.75;4.95;;;;;;;27.62;41.56;99337.28;5013187;28;20482;-79
2022/07/01 06:58:20;;;;;;;7.82;4.68;;;;;;;27.82;41.08;99339.97;4995749;28;20748;-78
2022/07/01 07:00:45;;;;;;;6.80;4.78;;;;;;;28.01;40.26;99341.00;4994273;28;20064;-77
2022/07/01 07:03:11;;;;;;;9.13;4.80;;;;;;;28.09;40.58;99343.66;4996129;28;20096;-78
2022/07/01 07:05:37;;;;;;;14.18;5.18;;;;;;;27.67;39.52;99330.97;5003581;28;20030;-78
2022/07/01 07:08:03;;;;;;;8.80;3.80;;;;;;;27.89;38.54;99339.75;4995137;28;20100;-78
2022/07/01 07:10:29;;;;;;;12.93;3.50;;;;;;;28.03;37.77;99347.09;5012308;28;20113;-78
2022/07/01 07:12:55;;;;;;;5.57;3.40;;;;;;;28.17;36.90;99336.41;4995424;28;20065;-79
2022/07/01 07:15:20;;;;;;;8.52;3.80;;;;;;;28.37;37.54;99341.16;5012836;28;20066;-79
2022/07/01 07:17:46;;;;;;;9.10;3.47;;;;;;;28.44;36.37;99343.78;5013679;28;20756;-75
2022/07/01 07:20:11;;;;;;;8.65;3.20;;;;;;;28.17;37.05;99340.13;5002154;28;20103;-78
2022/07/01 07:22:37;;;;;;;7.35;3.38;;;;;;;28.34;37.50;99327.69;5000761;28;20030;-76
2022/07/01 07:25:03;;;;;;;10.13;3.38;;;;;;;28.35;36.74;99335.06;4990139;28;20037;-76
2022/07/01 07:27:28;;;;;;;11.15;4.00;;;;;;;28.73;36.35;99340.75;4995638;28;20044;-75
2022/07/01 07:29:54;;;;;;;6.25;3.60;;;;;;;28.95;36.78;99334.25;4995702;28;20120;-78
2022/07/01 07:32:19;;;;;;;10.30;4.70;;;;;;;29.26;36.15;99335.63;4995693;28;20033;-77
2022/07/01 07:34:44;;;;;;;5.85;3.13;;;;;;;29.33;35.97;99334.56;5013254;28;20467;-77
2022/07/01 07:37:10;;;;;;;6.40;3.25;;;;;;;29.41;34.60;99318.63;5013402;28;20030;-77
2022/07/01 07:39:36;;;;;;;7.35;3.42;;;;;;;29.24;34.88;99320.88;4995309;28;20038;-76
2022/07/01 07:42:01;;;;;;;14.77;4.32;;;;;;;29.46;35.69;99323.81;4995494;28;20097;-76
2022/07/01 07:44:27;;;;;;;6.10;3.20;;;;;;;29.68;33.18;99318.03;5013122;28;20411;-76
2022/07/01 07:46:52;;;;;;;6.82;3.70;;;;;;;30.02;33.46;99324.09;5013078;28;20057;-77
2022/07/01 07:49:18;;;;;;;6.72;3.30;;;;;;;30.10;33.50;99322.56;5012980;28;20028;-77
2022/07/01 07:51:44;;;;;;;21.35;4.38;;;;;;;30.17;34.50;99323.53;5013098;28;20109;-77
2022/07/01 07:54:09;;;;;;;11.35;3.17;;;;;;;30.25;33.87;99330.63;5012878;28;20029;-77
2022/07/01 07:56:35;;;;;;;8.05;4.32;;;;;;;30.60;33.91;99330.41;5012751;28;20033;-77
2022/07/01 07:59:00;;;;;;;12.85;3.47;;;;;;;30.59;33.37;99319.34;5012976;28;20045;-80
2022/07/01 08:01:26;;;;;;;3.22;2.88;;;;;;;30.75;32.78;99326.94;4995228;28;20122;-78
2022/07/01 08:03:52;;;;;;;62.40;9.70;;;;;;;30.73;32.28;99320.84;5012831;28;20096;-77
2022/07/01 08:06:18;;;;;;;11.90;4.05;;;;;;;30.80;32.30;99321.31;4995116;28;20084;-76
2022/07/01 08:08:43;;;;;;;8.25;3.53;;;;;;;30.68;33.25;99319.38;4995076;28;20392;-77
2022/07/01 08:11:09;;;;;;;14.18;3.97;;;;;;;30.68;32.75;99323.09;5012536;28;20038;-78
2022/07/01 08:13:34;;;;;;;8.00;4.25;;;;;;;30.71;31.99;99329.19;5012627;28;20080;-78
2022/07/01 08:16:00;;;;;;;7.63;3.33;;;;;;;30.95;32.01;99321.50;4994890;28;20041;-78
2022/07/01 08:18:26;;;;;;;5.43;3.15;;;;;;;31.01;31.44;99323.75;4994945;28;20033;-79
2022/07/01 08:20:52;;;;;;;6.15;3.10;;;;;;;31.31;31.96;99307.53;4994226;28;20026;-79
2022/07/01 08:23:21;;;;;;;9.25;3.15;;;;;;;31.26;31.79;99318.97;5012339;28;20058;-79
2022/07/01 08:25:50;;;;;;;8.38;3.42;;;;;;;31.36;31.01;99309.81;4995079;28;20060;-78
2022/07/01 08:28:17;;;;;;;14.70;3.87;;;;;;;31.62;30.94;99302.88;5012557;28;20499;-78
2022/07/01 08:30:42;;;;;;;8.77;3.65;;;;;;;31.64;30.84;99309.75;4994641;28;20481;-78
2022/07/01 08:33:08;;;;;;;6.55;2.95;;;;;;;31.23;30.66;99312.06;5012570;28;20084;-77
2022/07/01 08:35:34;;;;;;;11.23;3.40;;;;;;;31.48;31.16;99310.88;4994966;28;20040;-77
2022/07/01 08:37:59;;;;;;;7.80;3.72;;;;;;;31.23;30.84;99309.19;5012195;28;20022;-75
2022/07/01 08:40:29;;;;;;;19.48;4.10;;;;;;;31.51;33.43;99312.84;5011954;28;20057;-75
2022/07/01 08:42:56;;;;;;;;;;;;;;;30.94;32.88;99314.13;5012815;28;20026;-75
2022/07/01 08:45:23;;;;;;;25.20;5.70;;;;;;;30.83;33.01;99313.81;4994478;28;19910;-75
2022/07/01 08:47:50;;;;;;;7.88;3.65;;;;;;;30.73;33.16;99320.84;4992916;28;20046;-75
2022/07/01 08:50:16;;;;;;;24.55;5.50;;;;;;;31.06;33.74;99308.69;4994545;28;20064;-75
2022/07/01 08:52:42;;;;;;;10.13;4.00;;;;;;;31.60;33.16;99308.31;5012154;28;20052;-75
2022/07/01 08:55:08;;;;;;;5.40;3.17;;;;;;;31.86;32.80;99296.41;5009713;28;20408;-75
2022/07/01 08:57:33;;;;;;;8.40;4.05;;;;;;;32.04;33.02;99310.75;5009986;28;20057;-75
2022/07/01 09:00:07;;;;;;;7.53;3.70;;;;;;;32.32;31.27;99307.72;4991118;28;20034;-72
2022/07/01 09:02:51;;;;;;;7.38;3.75;;;;;;;32.47;31.37;99301.25;4982142;28;20038;-72
2022/07/01 09:05:18;;;;;;;10.82;3.58;;;;;;;32.58;31.74;99298.63;4990131;28;20034;-72
2022/07/01 09:07:44;;;;;;;14.38;3.78;;;;;;;32.28;30.45;99298.44;4989762;28;20031;-72
2022/07/01 09:10:18;;;;;;;11.45;4.03;;;;;;;31.93;31.12;99296.03;4991593;28;20074;-72
2022/07/01 09:12:45;;;;;;;7.32;3.78;;;;;;;31.27;32.32;99291.69;5009192;28;20105;-74
2022/07/01 09:15:29;;;;;;;8.85;3.53;;;;;;;31.74;31.62;99293.19;4991985;28;20038;-74
2022/07/01 09:18:10;;;;;;;5.72;3.42;;;;;;;31.48;31.68;99287.00;4992312;28;20451;-75
2022/07/01 09:20:41;;;;;;;13.75;5.00;;;;;;;31.97;31.56;99301.63;5009357;28;20046;-74
2022/07/01 09:23:18;;;;;;;4.25;3.83;;;;;;;31.73;31.46;99285.00;5009762;28;20100;-78
2022/07/01 09:25:48;;;;;;;8.65;3.75;;;;;;;32.19;31.51;99292.69;5010721;28;20026;-77
2022/07/01 09:28:21;;;;;;;5.05;3.65;;;;;;;32.76;32.55;99288.19;5011348;28;20025;-77
2022/07/01 09:30:48;;;;;;;8.00;3.58;;;;;;;33.13;31.48;99287.91;5004865;28;20109;-73
2022/07/01 09:33:21;;;;;;;5.95;3.58;;;;;;;32.84;31.03;99298.09;4996772;28;20382;-74
2022/07/01 09:35:49;;;;;;;8.68;4.32;;;;;;;33.27;29.93;99285.53;4990515;28;20033;-78
2022/07/01 09:38:16;;;;;;;13.75;3.15;;;;;;;33.57;30.24;99279.78;4996378;28;20029;-77
2022/07/01 09:40:46;;;;;;;6.35;3.30;;;;;;;33.81;30.07;99284.66;5014506;28;20104;-77
2022/07/01 09:43:24;;;;;;;4.00;3.13;;;;;;;33.77;29.46;99278.25;5014753;28;20445;-77
2022/07/01 09:45:59;;;;;;;6.65;3.70;;;;;;;33.95;29.31;99283.81;5014621;28;20531;-77
2022/07/01 09:48:43;;;;;;;6.90;4.05;;;;;;;34.09;28.83;99276.44;5014562;28;20037;-77
2022/07/01 09:51:10;;;;;;;5.43;3.05;;;;;;;34.14;28.62;99272.00;5014768;28;20026;-77
2022/07/01 09:53:37;;;;;;;7.35;3.17;;;;;;;34.49;29.57;99271.16;4996884;28;20022;-77
2022/07/01 09:56:03;;;;;;;13.63;3.33;;;;;;;34.48;29.38;99268.78;4996672;28;20032;-77
2022/07/01 09:58:28;;;;;;;7.95;3.28;;;;;;;34.70;28.64;99268.31;5014593;28;20017;-77
2022/07/01 10:00:55;;;;;;;6.53;3.40;;;;;;;34.88;27.96;99272.22;4996759;28;20125;-77
2022/07/01 10:03:22;;;;;;;4.32;3.47;;;;;;;34.72;27.66;99278.13;4996683;28;20036;-77
2022/07/01 10:05:54;;;;;;;10.43;3.78;;;;;;;34.11;28.30;99264.31;4996677;28;20121;-78
2022/07/01 10:08:37;;;;;;;15.40;4.05;;;;;;;34.67;30.00;99267.22;4996707;28;20026;-77
2022/07/01 10:11:26;;;;;;;8.18;3.20;;;;;;;34.75;28.02;99258.84;5014143;28;20025;-77
2022/07/01 10:13:53;;;;;;;5.63;3.58;;;;;;;34.84;28.60;99252.13;4968351;28;20088;-77
2022/07/01 10:16:20;;;;;;;9.93;3.45;;;;;;;34.98;28.73;99250.41;4996489;28;20029;-78
2022/07/01 10:18:45;;;;;;;5.35;2.90;;;;;;;34.82;27.83;99254.75;5013947;28;20049;-77
2022/07/01 10:21:26;;;;;;;4.82;3.50;;;;;;;34.58;27.36;99258.66;5014378;28;20056;-77
2022/07/01 10:23:52;;;;;;;11.57;4.35;;;;;;;34.69;27.94;99258.81;4996255;28;20029;-77
2022/07/01 10:26:18;;;;;;;6.78;3.80;;;;;;;34.95;28.75;99251.44;5012744;28;20030;-77
2022/07/01 10:28:45;;;;;;;6.03;3.30;;;;;;;35.06;27.50;99257.41;4985106;28;20046;-77
2022/07/01 10:31:17;;;;;;;6.70;3.67;;;;;;;35.05;27.71;99246.28;5014013;28;20068;-77
2022/07/01 10:33:53;;;;;;;6.40;3.33;;;;;;;35.03;26.60;99249.72;4990959;28;20027;-77
2022/07/01 10:36:21;;;;;;;16.73;3.30;;;;;;;35.02;27.51;99241.47;4996171;28;20026;-77
2022/07/01 10:39:09;;;;;;;3.78;2.90;;;;;;;34.89;27.05;99239.75;5011600;28;20025;-77
2022/07/01 10:41:53;;;;;;;6.05;3.88;;;;;;;34.98;25.79;99235.88;4976539;28;20113;-77
2022/07/01 10:44:19;;;;;;;6.80;3.58;;;;;;;35.07;26.14;99238.66;4993594;28;20023;-77
2022/07/01 10:46:49;;;;;;;4.40;3.63;;;;;;;35.29;27.94;99237.28;4976173;28;20081;-77
2022/07/01 10:49:18;;;;;;;9.90;4.22;;;;;;;35.04;26.42;99228.06;4994024;28;20014;-77
2022/07/01 10:51:58;;;;;;;9.00;3.25;;;;;;;35.16;27.08;99231.09;5008468;28;20446;-76
2022/07/01 10:54:45;;;;;;;;;;;;;;;35.04;25.50;99230.97;5014113;28;20456;-77
2022/07/01 10:57:16;;;;;;;5.53;2.80;;;;;;;34.97;24.78;99231.38;4993830;28;20380;-77
2022/07/01 10:59:43;;;;;;;3.90;3.17;;;;;;;35.09;24.99;99227.31;4993819;28;20185;-77
2022/07/01 11:02:11;;;;;;;3.80;3.08;;;;;;;35.20;25.13;99229.56;4993648;28;20134;-77
2022/07/01 11:04:37;;;;;;;5.55;3.53;;;;;;;35.38;24.52;99224.69;5011964;28;20034;-76
2022/07/01 11:07:03;;;;;;;8.65;3.30;;;;;;;35.62;24.13;99236.03;5012420;28;20037;-77
2022/07/01 11:09:29;;;;;;;6.82;3.55;;;;;;;35.66;24.38;99219.13;4995549;28;20090;-77
2022/07/01 11:11:55;;;;;;;5.43;3.17;;;;;;;35.83;22.95;99216.34;4995542;28;20029;-77
2022/07/01 11:14:20;;;;;;;5.15;3.15;;;;;;;35.93;23.99;99211.13;5010287;28;20495;-76
2022/07/01 11:16:46;;;;;;;6.35;3.35;;;;;;;35.95;23.63;99213.53;5013024;28;20064;-77
2022/07/01 11:19:11;;;;;;;4.45;3.20;;;;;;;35.86;22.23;99202.91;4994952;28;20092;-76
2022/07/01 11:21:37;;;;;;;8.25;3.70;;;;;;;35.75;22.70;99180.34;5013146;28;20080;-77
2022/07/01 11:24:08;;;;;;;6.22;3.88;;;;;;;36.06;22.56;99209.91;4997606;28;20045;-77
2022/07/01 11:26:34;;;;;;;7.88;3.10;;;;;;;36.11;22.30;99207.03;4976055;28;20037;-77
2022/07/01 11:28:59;;;;;;;3.88;3.05;;;;;;;36.03;22.81;99203.00;4975669;28;20109;-77
2022/07/01 11:31:30;;;;;;;5.65;3.33;;;;;;;36.21;22.48;99201.00;4976120;28;20152;-77
2022/07/01 11:33:56;;;;;;;7.07;3.38;;;;;;;36.16;23.74;99190.13;4976396;28;20481;-77
2022/07/01 11:39:23;;;;;;;4.60;3.42;;;;;;;35.37;23.90;99182.41;4993291;28;20089;-76
2022/07/01 11:42:00;;;;;;;9.85;3.85;;;;;;;35.07;25.14;99188.50;4975947;28;20092;-76
2022/07/01 11:44:30;;;;;;;11.05;4.20;;;;;;;35.90;23.79;99186.00;4975719;28;20063;-76